Time;durP1;ratioP1;P1;durP2;ratioP2;P2;SDS_P1;SDS_P2;PMS_P1;PMS_P2;Temp;Humidity;BMP_temperature;BMP_pressure;BME280_temperature;BME280_humidity;BME280_pressure;Samples;Min_cycle;Max_cycle;Signal;HPM_P1;HPM_P2
2023/03/31 00:00:51;;;;;;;7.43;3.63;;;21.20;51.00;;;;;;5113109;28;20450;-81
2023/03/31 00:03:22;;;;;;;15.13;4.63;;;21.30;51.00;;;;;;5103328;28;20416;-81
2023/03/31 00:05:56;;;;;;;9.07;3.73;;;21.20;50.90;;;;;;5112657;28;20527;-82
2023/03/31 00:08:28;;;;;;;11.70;3.60;;;21.20;50.90;;;;;;5107683;28;20470;-81
2023/03/31 00:10:59;;;;;;;12.70;5.00;;;21.20;50.90;;;;;;5113176;28;20471;-81
2023/03/31 00:13:26;;;;;;;9.53;4.40;;;21.20;51.00;;;;;;5099604;28;20439;-83
2023/03/31 00:15:57;;;;;;;9.17;4.53;;;21.20;51.00;;;;;;5116440;28;20428;-81
2023/03/31 00:18:25;;;;;;;10.53;4.87;;;21.20;51.00;;;;;;5115828;28;20518;-81
2023/03/31 00:20:53;;;;;;;14.50;5.57;;;21.20;51.00;;;;;;5116071;28;20432;-81
2023/03/31 00:23:26;;;;;;;16.90;5.57;;;21.20;51.10;;;;;;5115460;27;20440;-81
2023/03/31 00:25:56;;;;;;;10.30;5.80;;;21.20;50.90;;;;;;5107558;28;20540;-81
2023/03/31 00:28:24;;;;;;;12.57;5.30;;;21.20;50.90;;;;;;5110803;28;20444;-81
2023/03/31 00:30:52;;;;;;;12.40;6.13;;;21.10;50.90;;;;;;5114936;27;20547;-81
2023/03/31 00:33:20;;;;;;;14.23;6.17;;;21.20;51.10;;;;;;5109858;28;20451;-81
2023/03/31 00:35:51;;;;;;;10.43;5.87;;;21.10;50.90;;;;;;5115301;27;20528;-81
2023/03/31 00:38:20;;;;;;;13.00;6.30;;;21.10;51.00;;;;;;5112572;27;20456;-81
2023/03/31 00:40:48;;;;;;;10.33;6.30;;;21.10;50.90;;;;;;5114992;27;20895;-81
2023/03/31 00:43:28;;;;;;;12.27;6.53;;;21.10;50.90;;;;;;5115340;27;20470;-82
2023/03/31 00:46:01;;;;;;;10.70;5.60;;;21.10;51.00;;;;;;5117222;27;20447;-81
2023/03/31 00:48:29;;;;;;;14.80;6.70;;;21.10;51.00;;;;;;5109608;27;20513;-81
2023/03/31 00:50:58;;;;;;;12.30;6.50;;;21.10;51.00;;;;;;5114065;27;20450;-81
2023/03/31 00:53:27;;;;;;;10.97;5.90;;;21.10;51.10;;;;;;5114863;27;20517;-80
2023/03/31 00:55:57;;;;;;;11.87;5.90;;;21.10;51.10;;;;;;5101394;27;20451;-80
2023/03/31 00:58:28;;;;;;;11.83;6.50;;;21.00;51.10;;;;;;5115580;27;20463;-81
2023/03/31 01:00:57;;;;;;;14.33;6.30;;;21.10;51.20;;;;;;5107333;28;20697;-81
2023/03/31 01:03:25;;;;;;;12.77;6.27;;;21.00;51.10;;;;;;5111895;28;20458;-81
2023/03/31 01:05:54;;;;;;;14.70;6.53;;;21.00;51.10;;;;;;5109486;28;20444;-81
2023/03/31 01:08:24;;;;;;;11.50;5.97;;;21.10;51.00;;;;;;5109611;28;20535;-81
2023/03/31 01:10:54;;;;;;;11.30;5.90;;;21.00;51.00;;;;;;5109073;27;20456;-81
2023/03/31 01:13:22;;;;;;;9.80;5.83;;;21.00;51.10;;;;;;5112769;28;20478;-82
2023/03/31 01:15:51;;;;;;;12.60;5.93;;;21.00;51.10;;;;;;5117323;28;20454;-81
2023/03/31 01:18:20;;;;;;;12.10;5.60;;;21.00;51.00;;;;;;5117069;28;20464;-81
2023/03/31 01:21:05;;;;;;;11.40;5.33;;;21.00;51.00;;;;;;5115799;27;20831;-81
2023/03/31 01:24:05;;;;;;;10.80;5.83;;;21.00;51.00;;;;;;5110854;28;20440;-81
2023/03/31 01:26:51;;;;;;;16.63;5.57;;;21.00;51.10;;;;;;5075743;28;20536;-80
2023/03/31 01:29:38;;;;;;;10.30;5.10;;;21.00;51.20;;;;;;5115482;27;20442;-80
2023/03/31 01:32:42;;;;;;;11.93;5.27;;;21.00;51.20;;;;;;5113483;28;20468;-80
2023/03/31 01:35:40;;;;;;;10.20;5.50;;;21.00;51.20;;;;;;5113086;28;20443;-80
2023/03/31 01:38:30;;;;;;;12.13;5.57;;;20.90;51.10;;;;;;5091764;28;20494;-80
2023/03/31 01:41:16;;;;;;;11.60;5.73;;;21.00;51.30;;;;;;5116821;28;20819;-80
2023/03/31 01:43:47;;;;;;;10.03;5.40;;;20.90;51.20;;;;;;5115855;28;20439;-81
2023/03/31 01:46:18;;;;;;;9.90;5.20;;;20.90;51.20;;;;;;5114432;28;20446;-81
2023/03/31 01:48:49;;;;;;;13.37;5.40;;;20.90;51.20;;;;;;5115469;28;20467;-80
2023/03/31 01:51:17;;;;;;;9.73;4.70;;;20.90;51.20;;;;;;5115684;28;20443;-81
2023/03/31 01:53:49;;;;;;;11.57;5.50;;;20.90;51.30;;;;;;5102113;28;20475;-81
2023/03/31 01:56:20;;;;;;;9.07;5.00;;;20.90;51.40;;;;;;5117780;28;20448;-80
2023/03/31 01:58:50;;;;;;;8.70;5.10;;;20.90;51.20;;;;;;5108745;27;20470;-80
2023/03/31 02:01:19;;;;;;;8.00;4.73;;;20.90;51.30;;;;;;5124419;28;20464;-82
2023/03/31 02:03:49;;;;;;;11.03;5.57;;;20.90;51.40;;;;;;5121209;28;20477;-80
2023/03/31 02:06:20;;;;;;;9.60;5.07;;;20.90;51.50;;;;;;5115893;28;20452;-80
2023/03/31 02:08:49;;;;;;;9.10;4.70;;;20.80;51.40;;;;;;5114309;28;20474;-80
2023/03/31 02:11:18;;;;;;;9.67;5.50;;;20.80;51.40;;;;;;5109543;28;20436;-80
2023/03/31 02:13:47;;;;;;;15.53;5.40;;;20.80;51.40;;;;;;5116041;28;20463;-80
2023/03/31 02:16:17;;;;;;;8.70;5.00;;;20.80;51.50;;;;;;5115383;28;20443;-78
2023/03/31 02:18:46;;;;;;;11.17;4.97;;;20.80;51.50;;;;;;5114221;27;20463;-80
2023/03/31 02:21:15;;;;;;;10.80;5.50;;;20.80;51.50;;;;;;5101478;28;20464;-80
2023/03/31 02:23:43;;;;;;;12.70;4.93;;;20.80;51.50;;;;;;5114845;28;20439;-80
2023/03/31 02:26:12;;;;;;;8.07;4.50;;;20.80;51.50;;;;;;5115060;27;20463;-80
2023/03/31 02:28:41;;;;;;;7.10;4.07;;;20.80;51.50;;;;;;5112466;28;20994;-80
2023/03/31 02:31:18;;;;;;;8.20;4.90;;;20.70;51.30;;;;;;5113102;28;20433;-80
2023/03/31 02:33:47;;;;;;;9.77;4.50;;;20.80;51.60;;;;;;5117541;28;20471;-81
2023/03/31 02:36:15;;;;;;;8.20;4.40;;;20.70;51.50;;;;;;5114385;28;20477;-80
2023/03/31 02:38:44;;;;;;;9.77;4.50;;;20.70;51.50;;;;;;5112133;28;20461;-80
2023/03/31 02:41:12;;;;;;;10.70;4.53;;;20.70;51.50;;;;;;5111950;28;20428;-80
2023/03/31 02:43:41;;;;;;;9.00;4.30;;;20.70;51.40;;;;;;5114395;27;20440;-80
2023/03/31 02:46:10;;;;;;;7.10;4.43;;;20.70;51.50;;;;;;5113915;27;20448;-80
2023/03/31 02:48:39;;;;;;;9.30;4.53;;;20.70;51.50;;;;;;5114007;28;20521;-80
2023/03/31 02:51:45;;;;;;;9.43;3.83;;;20.70;51.60;;;;;;5104766;28;20563;-80
2023/03/31 02:54:24;;;;;;;9.50;4.60;;;20.70;51.40;;;;;;5066274;28;20578;-79
2023/03/31 02:57:02;;;;;;;10.47;4.20;;;20.60;51.60;;;;;;5109289;28;20440;-80
2023/03/31 02:59:38;;;;;;;10.53;4.30;;;20.60;51.70;;;;;;5112734;28;20462;-80
2023/03/31 03:02:14;;;;;;;7.10;3.90;;;20.60;51.50;;;;;;5114548;28;20444;-80
2023/03/31 03:05:06;;;;;;;7.43;4.10;;;20.60;51.50;;;;;;5106247;28;21010;-80
2023/03/31 03:07:36;;;;;;;8.13;4.00;;;20.60;51.60;;;;;;5114161;27;20520;-80
2023/03/31 03:10:06;;;;;;;7.00;3.60;;;20.60;51.70;;;;;;5105741;28;20433;-80
2023/03/31 03:12:36;;;;;;;7.73;3.87;;;20.60;52.00;;;;;;5121436;28;20475;-80
2023/03/31 03:15:07;;;;;;;8.93;3.63;;;20.60;51.70;;;;;;5114976;28;20432;-79
2023/03/31 03:17:35;;;;;;;7.13;3.90;;;20.60;51.60;;;;;;5115696;27;20451;-80
2023/03/31 03:20:06;;;;;;;7.50;3.63;;;20.60;51.60;;;;;;5117075;28;20524;-81
2023/03/31 03:22:35;;;;;;;7.67;4.10;;;20.60;51.60;;;;;;5118894;27;20406;-80
2023/03/31 03:25:03;;;;;;;9.57;4.07;;;20.60;51.70;;;;;;5119042;27;20448;-81
2023/03/31 03:27:31;;;;;;;7.50;3.90;;;20.60;51.60;;;;;;5111504;28;20471;-81
2023/03/31 03:30:01;;;;;;;8.60;4.00;;;20.60;51.70;;;;;;5119265;27;20447;-81
2023/03/31 03:32:32;;;;;;;7.73;3.60;;;20.60;51.60;;;;;;5116228;28;20443;-81
2023/03/31 03:35:00;;;;;;;8.97;4.20;;;20.60;51.60;;;;;;5119298;27;20448;-81
2023/03/31 03:37:28;;;;;;;7.40;3.90;;;20.50;51.60;;;;;;5118893;27;20508;-81
2023/03/31 03:39:56;;;;;;;9.93;3.83;;;20.50;51.60;;;;;;5118354;28;20514;-81
2023/03/31 03:42:24;;;;;;;6.37;3.10;;;20.50;51.60;;;;;;5117968;28;20475;-81
2023/03/31 03:44:52;;;;;;;6.90;3.93;;;20.50;51.60;;;;;;5110358;28;20436;-81
2023/03/31 03:47:20;;;;;;;7.40;3.70;;;20.50;51.60;;;;;;5114263;28;20465;-81
2023/03/31 03:49:50;;;;;;;8.10;3.40;;;20.50;51.60;;;;;;5117036;28;20535;-81
2023/03/31 03:52:18;;;;;;;7.67;2.97;;;20.50;51.70;;;;;;5118619;27;20448;-82
2023/03/31 03:54:46;;;;;;;6.23;3.50;;;20.40;51.60;;;;;;5115622;28;20558;-81
2023/03/31 03:57:14;;;;;;;9.90;3.83;;;20.40;51.60;;;;;;5117225;27;20464;-81
2023/03/31 03:59:42;;;;;;;8.60;3.53;;;20.40;51.70;;;;;;5116904;27;20448;-81
2023/03/31 04:02:10;;;;;;;10.37;3.83;;;20.40;51.80;;;;;;5109810;27;20523;-81
2023/03/31 04:04:38;;;;;;;5.07;2.77;;;20.40;51.70;;;;;;5109487;28;20443;-81
2023/03/31 04:07:08;;;;;;;8.83;3.40;;;20.40;51.70;;;;;;5116888;28;20535;-81
2023/03/31 04:09:36;;;;;;;9.37;3.67;;;20.40;51.80;;;;;;5118379;28;20440;-81
2023/03/31 04:12:04;;;;;;;8.10;3.80;;;20.30;51.80;;;;;;5109527;28;20439;-81
2023/03/31 04:14:32;;;;;;;5.37;2.93;;;20.30;51.80;;;;;;5117982;28;20471;-81
2023/03/31 04:17:02;;;;;;;6.30;3.50;;;20.30;51.80;;;;;;5118580;28;20424;-81
2023/03/31 04:19:29;;;;;;;4.53;2.90;;;20.30;51.80;;;;;;5114244;28;20448;-80
2023/03/31 04:22:01;;;;;;;8.87;3.53;;;20.30;51.90;;;;;;5117806;28;20432;-80
2023/03/31 04:24:31;;;;;;;5.80;3.17;;;20.30;51.90;;;;;;5116635;28;20452;-81
2023/03/31 04:27:01;;;;;;;6.87;3.10;;;20.30;51.80;;;;;;5117435;27;20505;-81
2023/03/31 04:29:32;;;;;;;7.03;3.30;;;20.30;51.80;;;;;;5113070;28;20500;-81
2023/03/31 04:32:00;;;;;;;6.67;2.87;;;20.30;51.90;;;;;;5114499;27;20444;-81
2023/03/31 04:34:34;;;;;;;7.10;3.40;;;20.30;51.90;;;;;;5115992;27;20468;-81
2023/03/31 04:37:03;;;;;;;5.70;2.87;;;20.20;51.80;;;;;;5117901;28;20443;-79
2023/03/31 04:39:32;;;;;;;6.50;3.10;;;20.20;51.80;;;;;;5116770;28;20477;-81
2023/03/31 04:42:00;;;;;;;5.33;3.13;;;20.20;51.80;;;;;;5117770;27;20516;-81
2023/03/31 04:44:29;;;;;;;6.23;3.37;;;20.20;51.80;;;;;;5117212;28;20452;-81
2023/03/31 04:46:57;;;;;;;7.43;3.67;;;20.20;52.50;;;;;;5114049;28;20451;-80
2023/03/31 04:49:25;;;;;;;10.20;3.37;;;20.20;51.90;;;;;;5115255;27;20527;-81
2023/03/31 04:51:53;;;;;;;5.90;2.80;;;20.20;52.00;;;;;;5115414;27;20519;-81
2023/03/31 04:54:21;;;;;;;5.17;3.00;;;20.20;52.00;;;;;;5104958;27;20461;-82
2023/03/31 04:56:51;;;;;;;4.07;2.97;;;20.20;51.90;;;;;;5117035;27;20494;-81
2023/03/31 04:59:19;;;;;;;4.83;2.73;;;20.20;52.00;;;;;;5116196;28;20513;-81
2023/03/31 05:01:47;;;;;;;6.00;3.00;;;20.20;52.00;;;;;;5117242;27;20444;-81
2023/03/31 05:04:15;;;;;;;6.20;2.83;;;20.20;52.00;;;;;;5117057;27;20482;-81
2023/03/31 05:06:43;;;;;;;5.77;2.87;;;20.20;51.90;;;;;;5121793;27;20448;-84
2023/03/31 05:09:11;;;;;;;7.83;3.27;;;20.20;52.10;;;;;;5121448;27;20570;-80
2023/03/31 05:11:39;;;;;;;6.10;3.20;;;20.10;51.80;;;;;;5108807;28;20458;-81
2023/03/31 05:14:09;;;;;;;12.70;2.90;;;20.20;51.90;;;;;;5114535;28;20539;-81
2023/03/31 05:16:37;;;;;;;7.07;2.87;;;20.10;51.90;;;;;;5114740;28;20503;-81
2023/03/31 05:19:05;;;;;;;6.53;2.90;;;20.10;52.00;;;;;;5114410;28;20475;-80
2023/03/31 05:21:33;;;;;;;6.33;2.50;;;20.10;52.00;;;;;;5112013;28;20460;-80
2023/03/31 05:24:01;;;;;;;4.97;2.93;;;20.10;52.10;;;;;;5104025;27;20486;-80
2023/03/31 05:26:29;;;;;;;5.53;2.80;;;20.10;51.90;;;;;;5111426;28;20432;-80
2023/03/31 05:28:58;;;;;;;8.30;3.17;;;20.10;52.10;;;;;;5107089;28;20459;-80
2023/03/31 05:31:28;;;;;;;6.03;2.53;;;20.10;52.00;;;;;;5110858;27;20452;-81
2023/03/31 05:33:56;;;;;;;5.37;3.27;;;20.10;52.10;;;;;;5112434;27;20460;-80
2023/03/31 05:36:25;;;;;;;5.70;3.20;;;20.10;52.10;;;;;;5112366;27;20447;-80
2023/03/31 05:38:54;;;;;;;7.33;3.13;;;20.10;52.10;;;;;;5111168;27;20464;-81
2023/03/31 05:41:22;;;;;;;5.93;2.70;;;20.10;52.10;;;;;;5112963;28;20440;-80
2023/03/31 05:43:50;;;;;;;6.63;2.90;;;20.00;52.00;;;;;;5113253;27;20450;-80
2023/03/31 05:46:18;;;;;;;5.97;3.20;;;20.00;52.00;;;;;;5113020;27;20534;-80
2023/03/31 05:48:47;;;;;;;5.43;2.50;;;20.00;52.10;;;;;;5113282;28;20563;-80
2023/03/31 05:51:15;;;;;;;2.47;2.27;;;20.00;52.10;;;;;;5107482;28;20448;-80
2023/03/31 05:53:44;;;;;;;6.03;2.87;;;20.00;52.10;;;;;;5107173;28;20446;-80
2023/03/31 05:56:12;;;;;;;7.33;3.20;;;20.00;52.30;;;;;;5106499;27;20441;-80
2023/03/31 05:58:40;;;;;;;8.37;2.80;;;20.00;52.40;;;;;;5104875;28;20463;-80
2023/03/31 06:01:09;;;;;;;3.30;2.30;;;19.90;52.30;;;;;;5113013;28;20464;-80
2023/03/31 06:03:39;;;;;;;6.77;3.10;;;20.00;52.40;;;;;;5115901;27;20493;-80
2023/03/31 06:06:11;;;;;;;7.00;2.63;;;19.90;52.40;;;;;;5112162;28;20481;-78
2023/03/31 06:08:40;;;;;;;5.50;2.93;;;19.90;52.30;;;;;;5104102;28;20521;-80
2023/03/31 06:11:08;;;;;;;3.00;2.70;;;19.90;52.40;;;;;;5119100;27;20455;-80
2023/03/31 06:13:36;;;;;;;10.10;3.40;;;19.90;52.40;;;;;;5116919;28;20497;-79
2023/03/31 06:16:05;;;;;;;7.33;3.40;;;19.90;52.50;;;;;;5117939;28;20475;-79
2023/03/31 06:18:34;;;;;;;6.83;3.30;;;19.90;52.40;;;;;;5116555;28;20857;-79
2023/03/31 06:21:02;;;;;;;3.57;2.53;;;19.90;52.60;;;;;;5115565;28;20446;-79
2023/03/31 06:23:31;;;;;;;4.80;2.60;;;19.90;52.60;;;;;;5113579;28;20467;-79
2023/03/31 06:26:00;;;;;;;3.93;2.80;;;19.90;52.50;;;;;;5113296;27;20448;-79
2023/03/31 06:28:28;;;;;;;6.07;3.00;;;19.90;52.60;;;;;;5109844;28;20535;-79
2023/03/31 06:31:01;;;;;;;3.57;2.67;;;19.90;52.60;;;;;;5118770;28;20447;-79
2023/03/31 06:33:29;;;;;;;5.37;3.10;;;19.90;52.70;;;;;;5110923;27;20477;-79
2023/03/31 06:35:58;;;;;;;3.17;2.63;;;19.90;52.80;;;;;;5119519;27;20482;-80
2023/03/31 06:38:26;;;;;;;4.50;2.80;;;19.90;52.60;;;;;;5117252;27;20471;-80
2023/03/31 06:40:55;;;;;;;3.43;2.60;;;19.90;52.60;;;;;;5118583;27;20443;-79
2023/03/31 06:43:23;;;;;;;7.07;2.93;;;19.90;52.80;;;;;;5120210;28;20440;-79
2023/03/31 06:45:52;;;;;;;4.77;2.50;;;20.00;52.80;;;;;;5120992;27;20436;-79
2023/03/31 06:48:20;;;;;;;3.27;2.50;;;20.00;52.80;;;;;;5120597;27;20482;-80
2023/03/31 06:50:48;;;;;;;4.67;2.83;;;20.00;52.80;;;;;;5117330;27;20451;-81
2023/03/31 06:53:16;;;;;;;5.77;3.07;;;20.00;52.70;;;;;;5121373;27;20444;-79
2023/03/31 06:55:44;;;;;;;2.60;2.40;;;20.00;52.60;;;;;;5109596;28;20479;-80
2023/03/31 06:58:14;;;;;;;7.47;2.97;;;20.00;52.70;;;;;;5113478;28;20477;-79
2023/03/31 07:00:44;;;;;;;5.20;2.43;;;20.10;52.70;;;;;;5113647;28;20468;-80
2023/03/31 07:03:12;;;;;;;3.50;2.50;;;20.10;52.80;;;;;;5105624;28;20453;-79
2023/03/31 07:05:41;;;;;;;4.40;3.10;;;20.00;52.60;;;;;;5109863;28;20454;-79
2023/03/31 07:08:09;;;;;;;4.37;2.80;;;20.10;52.80;;;;;;5116701;27;20467;-79
2023/03/31 07:10:38;;;;;;;3.80;2.40;;;20.10;52.80;;;;;;5110398;28;20440;-80
2023/03/31 07:13:05;;;;;;;3.93;2.83;;;20.10;52.70;;;;;;5118063;27;20459;-80
2023/03/31 07:15:35;;;;;;;4.37;2.73;;;20.10;52.80;;;;;;5106465;27;20571;-80
2023/03/31 07:18:03;;;;;;;4.13;3.00;;;20.20;52.90;;;;;;5118449;27;20460;-80
2023/03/31 07:20:32;;;;;;;5.00;3.13;;;20.10;52.70;;;;;;5113914;27;20546;-79
2023/03/31 07:23:03;;;;;;;3.20;2.77;;;20.20;52.90;;;;;;5112544;28;20438;-80
2023/03/31 07:25:31;;;;;;;3.83;2.80;;;20.20;52.80;;;;;;5117313;28;20437;-81
2023/03/31 07:27:59;;;;;;;8.53;6.00;;;20.20;52.70;;;;;;5109919;28;20464;-78
2023/03/31 07:30:27;;;;;;;9.33;6.97;;;19.20;54.50;;;;;;5110364;28;20502;-79
2023/03/31 07:32:56;;;;;;;9.93;8.27;;;17.60;58.50;;;;;;5103615;28;20440;-78
2023/03/31 07:35:24;;;;;;;11.50;7.83;;;17.00;60.90;;;;;;5104686;27;20475;-78
2023/03/31 07:37:52;;;;;;;16.40;10.00;;;16.00;66.80;;;;;;5107939;27;20470;-77
2023/03/31 07:40:22;;;;;;;15.03;10.50;;;15.60;68.60;;;;;;5113348;28;20446;-75
2023/03/31 07:42:50;;;;;;;13.73;9.87;;;15.10;72.20;;;;;;5101381;28;20443;-77
2023/03/31 07:45:19;;;;;;;14.97;10.90;;;14.50;79.10;;;;;;5104647;27;20428;-77
2023/03/31 07:47:46;;;;;;;19.30;11.37;;;14.20;85.60;;;;;;5112485;28;20452;-77
2023/03/31 07:50:16;;;;;;;20.60;11.87;;;13.90;91.50;;;;;;5109920;27;20460;-79
2023/03/31 07:52:44;;;;;;;13.97;9.40;;;13.90;96.50;;;;;;5107016;27;20463;-79
2023/03/31 07:55:14;;;;;;;15.50;9.20;;;15.00;99.70;;;;;;5113157;28;20474;-77
2023/03/31 07:57:42;;;;;;;10.00;8.10;;;15.90;98.10;;;;;;5114366;28;20499;-80
2023/03/31 08:00:11;;;;;;;9.70;7.03;;;16.70;95.90;;;;;;5115237;28;20444;-81
2023/03/31 08:02:40;;;;;;;9.47;7.43;;;17.20;93.60;;;;;;5109679;28;20448;-80
2023/03/31 08:05:10;;;;;;;9.30;7.50;;;17.60;91.30;;;;;;5116925;27;20452;-81
2023/03/31 08:07:41;;;;;;;12.00;6.50;;;18.00;89.50;;;;;;5117919;28;20452;-79
2023/03/31 08:10:10;;;;;;;9.43;5.93;;;18.30;86.50;;;;;;5117445;28;20709;-80
2023/03/31 08:12:38;;;;;;;8.87;5.73;;;18.50;84.30;;;;;;5118393;27;20443;-82
2023/03/31 08:15:07;;;;;;;6.73;4.90;;;18.70;82.50;;;;;;5120545;28;20447;-79
2023/03/31 08:17:35;;;;;;;6.50;4.27;;;18.80;80.60;;;;;;5113971;28;20464;-79
2023/03/31 08:20:06;;;;;;;5.50;4.20;;;19.00;79.40;;;;;;5113178;28;20452;-79
2023/03/31 08:22:35;;;;;;;7.43;4.70;;;19.10;78.30;;;;;;5111224;28;20467;-79
2023/03/31 08:25:06;;;;;;;5.00;3.93;;;19.30;77.30;;;;;;5109637;28;20443;-79
2023/03/31 08:27:34;;;;;;;5.80;4.00;;;19.40;76.20;;;;;;5103035;27;20475;-79
2023/03/31 08:30:03;;;;;;;6.17;3.83;;;19.50;75.30;;;;;;5107320;28;20451;-79
2023/03/31 08:32:31;;;;;;;6.80;4.17;;;19.60;74.70;;;;;;5102758;28;20448;-79
2023/03/31 08:34:59;;;;;;;6.53;4.17;;;19.70;74.00;;;;;;5103741;28;20478;-79
2023/03/31 08:37:27;;;;;;;5.33;3.63;;;19.70;73.30;;;;;;5109828;28;20512;-79
2023/03/31 08:39:55;;;;;;;4.23;3.40;;;19.70;72.90;;;;;;5106738;28;20456;-79
2023/03/31 08:42:29;;;;;;;7.50;3.57;;;19.70;72.40;;;;;;5113365;28;20440;-80
2023/03/31 08:44:59;;;;;;;5.93;4.20;;;19.80;71.90;;;;;;5104007;28;20460;-80
2023/03/31 08:47:27;;;;;;;3.27;2.97;;;19.80;71.70;;;;;;5104167;28;20440;-80
2023/03/31 08:49:57;;;;;;;4.10;3.20;;;19.80;71.20;;;;;;5109097;28;20449;-79
2023/03/31 08:52:26;;;;;;;3.27;2.97;;;19.80;70.80;;;;;;5106208;28;20455;-77
2023/03/31 08:54:56;;;;;;;3.30;3.00;;;19.90;70.80;;;;;;5108719;28;20437;-79
2023/03/31 08:57:25;;;;;;;6.40;3.53;;;19.90;70.60;;;;;;5105090;28;20479;-76
2023/03/31 08:59:57;;;;;;;4.77;2.30;;;19.90;70.00;;;;;;5111501;28;20435;-76
2023/03/31 09:02:29;;;;;;;7.43;2.70;;;20.10;73.80;;;;;;5110669;28;20431;-76
2023/03/31 09:05:17;;;;;;;11.30;2.87;;;20.50;73.40;;;;;;5111389;28;20526;-77
2023/03/31 09:07:50;;;;;;;8.10;3.10;;;20.90;72.30;;;;;;5105120;28;20447;-77
2023/03/31 09:10:27;;;;;;;10.13;3.10;;;21.20;71.40;;;;;;5111294;28;20431;-74
2023/03/31 09:12:59;;;;;;;6.33;3.00;;;21.50;71.30;;;;;;5099688;28;20449;-76
2023/03/31 09:15:28;;;;;;;18.50;3.10;;;21.80;70.90;;;;;;5110152;28;20440;-76
2023/03/31 09:17:57;;;;;;;16.13;2.77;;;22.10;70.00;;;;;;5110163;28;20469;-76
2023/03/31 09:20:28;;;;;;;9.73;3.17;;;22.30;69.20;;;;;;5101830;27;20456;-76
2023/03/31 09:22:57;;;;;;;9.43;2.80;;;22.50;68.10;;;;;;5099807;28;20440;-75
2023/03/31 09:25:26;;;;;;;16.17;2.90;;;22.60;67.30;;;;;;5111247;28;20442;-75
2023/03/31 09:27:55;;;;;;;6.97;3.07;;;22.70;66.60;;;;;;5110545;28;20467;-77
2023/03/31 09:30:26;;;;;;;13.00;3.10;;;22.80;66.10;;;;;;5110190;28;20527;-76
2023/03/31 09:32:58;;;;;;;5.93;2.77;;;22.90;65.60;;;;;;5110659;28;20455;-77
2023/03/31 09:35:27;;;;;;;8.73;2.60;;;23.00;65.10;;;;;;5111192;28;20432;-75
2023/03/31 09:37:56;;;;;;;4.87;2.63;;;23.10;64.80;;;;;;5102779;28;20476;-76
2023/03/31 09:40:24;;;;;;;12.10;2.90;;;23.20;64.30;;;;;;5107123;28;20441;-75
2023/03/31 09:42:56;;;;;;;10.20;2.83;;;23.20;64.60;;;;;;5110970;28;20414;-76
2023/03/31 09:45:26;;;;;;;8.90;3.20;;;23.20;63.30;;;;;;5109177;28;20474;-77
2023/03/31 09:47:54;;;;;;;14.50;2.97;;;23.20;63.50;;;;;;5109410;28;20450;-78
2023/03/31 09:50:23;;;;;;;11.63;3.10;;;23.30;63.10;;;;;;5112266;28;20476;-78
2023/03/31 09:52:52;;;;;;;18.10;3.40;;;23.40;62.90;;;;;;5101977;27;20455;-77
2023/03/31 09:55:22;;;;;;;18.33;3.50;;;23.50;62.60;;;;;;5112236;28;20421;-77
2023/03/31 09:58:06;;;;;;;13.97;2.83;;;23.50;62.40;;;;;;5099790;28;20550;-75
2023/03/31 10:00:36;;;;;;;10.10;3.33;;;23.50;62.20;;;;;;5111698;27;20430;-82
2023/03/31 10:03:06;;;;;;;12.13;2.83;;;23.40;61.30;;;;;;5117119;28;20448;-81
2023/03/31 10:05:35;;;;;;;5.87;2.90;;;23.30;60.60;;;;;;5121559;28;20432;-81
2023/03/31 10:08:17;;;;;;;13.03;3.03;;;23.20;60.80;;;;;;5121843;28;20462;-82
2023/03/31 10:10:45;;;;;;;14.73;3.47;;;23.00;61.00;;;;;;5119979;28;20976;-81
2023/03/31 10:13:15;;;;;;;5.47;3.30;;;22.90;61.40;;;;;;5119377;27;20447;-80
2023/03/31 10:15:45;;;;;;;8.53;3.33;;;22.70;61.80;;;;;;5116666;28;20458;-82
2023/03/31 10:18:14;;;;;;;8.30;3.87;;;22.60;62.30;;;;;;5122302;27;20522;-81
2023/03/31 10:20:44;;;;;;;10.70;4.10;;;22.50;62.50;;;;;;5118330;28;20448;-81
2023/03/31 10:23:16;;;;;;;4.67;3.27;;;22.50;62.70;;;;;;5116572;27;20451;-81
2023/03/31 10:25:45;;;;;;;5.23;3.40;;;22.40;62.80;;;;;;5120675;28;20439;-82
2023/03/31 10:28:15;;;;;;;6.23;3.00;;;22.40;62.90;;;;;;5115043;27;20468;-82
2023/03/31 10:30:47;;;;;;;8.60;3.33;;;22.30;63.20;;;;;;5113822;28;20439;-81
2023/03/31 10:33:16;;;;;;;5.00;3.40;;;22.20;63.10;;;;;;5118602;28;20470;-81
2023/03/31 10:35:50;;;;;;;6.83;3.60;;;22.10;63.30;;;;;;5130337;27;20434;-81
2023/03/31 10:38:22;;;;;;;5.63;3.80;;;22.00;63.50;;;;;;5113436;28;20533;-82
2023/03/31 10:40:51;;;;;;;9.87;3.70;;;21.90;63.40;;;;;;5110810;27;20479;-81
2023/03/31 10:43:20;;;;;;;9.27;3.87;;;21.80;63.60;;;;;;5117185;28;20440;-81
2023/03/31 10:45:49;;;;;;;6.03;3.67;;;21.80;64.00;;;;;;5117207;28;20444;-79
2023/03/31 10:48:18;;;;;;;5.87;3.60;;;21.70;64.00;;;;;;5111288;27;20432;-80
2023/03/31 10:50:47;;;;;;;10.47;4.20;;;21.60;63.90;;;;;;5113086;28;20456;-82
2023/03/31 10:53:15;;;;;;;7.30;4.17;;;21.60;64.30;;;;;;5122417;27;20452;-82
2023/03/31 10:55:50;;;;;;;8.37;4.83;;;21.50;64.20;;;;;;5109844;28;20440;-80
2023/03/31 10:58:25;;;;;;;10.20;4.77;;;21.50;64.50;;;;;;5110061;27;20546;-80
2023/03/31 11:01:01;;;;;;;7.03;4.67;;;21.50;64.70;;;;;;5115385;28;20458;-80
2023/03/31 11:03:47;;;;;;;7.60;4.20;;;21.50;64.60;;;;;;5110791;28;20460;-81
2023/03/31 11:06:19;;;;;;;4.67;4.10;;;21.50;64.60;;;;;;5117657;27;20538;-82
2023/03/31 11:08:52;;;;;;;8.07;4.40;;;21.60;64.60;;;;;;5108560;27;20482;-80
2023/03/31 11:11:30;;;;;;;9.43;4.63;;;21.60;64.50;;;;;;5109454;28;20445;-81
2023/03/31 11:14:00;;;;;;;7.30;4.90;;;21.70;64.70;;;;;;5111178;27;20538;-80
2023/03/31 11:16:34;;;;;;;11.70;5.00;;;21.70;64.30;;;;;;5113589;27;20448;-80
2023/03/31 11:19:08;;;;;;;8.73;4.87;;;21.70;64.00;;;;;;5116615;27;20468;-81
2023/03/31 11:21:42;;;;;;;8.27;5.10;;;21.70;63.90;;;;;;5118100;28;20461;-80
2023/03/31 11:24:16;;;;;;;9.33;4.60;;;21.70;64.10;;;;;;5107276;27;20446;-81
2023/03/31 11:26:48;;;;;;;7.00;5.27;;;21.70;64.10;;;;;;5107268;28;20435;-82
2023/03/31 11:29:23;;;;;;;6.70;4.83;;;21.60;63.80;;;;;;5108252;27;20460;-81
2023/03/31 11:31:54;;;;;;;19.47;4.80;;;21.60;63.90;;;;;;5115385;27;20457;-82
2023/03/31 11:34:34;;;;;;;12.20;4.70;;;21.50;64.20;;;;;;5107264;28;20445;-82
2023/03/31 11:37:35;;;;;;;6.53;4.63;;;21.50;64.10;;;;;;5111158;28;22414;-83
2023/03/31 11:40:20;;;;;;;7.07;4.50;;;21.50;64.00;;;;;;5066116;28;20513;-83
2023/03/31 11:42:49;;;;;;;6.63;4.70;;;21.50;64.00;;;;;;5112250;27;20452;-82
2023/03/31 11:45:19;;;;;;;7.97;4.73;;;21.50;64.10;;;;;;5108018;28;20462;-82
2023/03/31 11:47:50;;;;;;;10.30;4.73;;;21.40;64.10;;;;;;5104636;28;20472;-81
2023/03/31 11:50:19;;;;;;;6.10;5.13;;;21.40;64.10;;;;;;5106997;28;20475;-81
2023/03/31 11:52:50;;;;;;;7.00;4.30;;;21.40;64.20;;;;;;5114480;27;20440;-81
2023/03/31 11:55:22;;;;;;;8.53;4.60;;;21.40;64.30;;;;;;5116145;28;20966;-81
2023/03/31 11:57:52;;;;;;;7.93;4.57;;;21.50;64.30;;;;;;5114239;28;20468;-81
2023/03/31 12:00:22;;;;;;;8.80;4.47;;;21.60;64.30;;;;;;5113651;28;20430;-81
2023/03/31 12:02:54;;;;;;;7.53;4.53;;;21.80;64.50;;;;;;5116197;27;20443;-83
2023/03/31 12:05:23;;;;;;;4.93;4.43;;;22.00;64.20;;;;;;5113506;28;20460;-81
2023/03/31 12:07:54;;;;;;;5.50;4.77;;;22.30;63.90;;;;;;5120436;27;20834;-82
2023/03/31 12:10:23;;;;;;;5.80;4.30;;;22.40;62.70;;;;;;5112030;27;20512;-83
2023/03/31 12:12:53;;;;;;;6.43;4.60;;;22.30;62.10;;;;;;5116048;27;20455;-76
2023/03/31 12:15:25;;;;;;;4.77;3.20;;;22.10;62.80;;;;;;5109338;28;20448;-76
2023/03/31 12:17:57;;;;;;;4.83;3.93;;;21.40;60.30;;;;;;5112839;27;20558;-76
2023/03/31 12:20:31;;;;;;;6.53;3.47;;;21.00;65.30;;;;;;5107497;28;20426;-76
2023/03/31 12:23:00;;;;;;;5.27;3.47;;;20.90;65.30;;;;;;5107302;28;20440;-76
2023/03/31 12:25:33;;;;;;;6.93;4.23;;;20.70;63.30;;;;;;5110736;27;20439;-76
2023/03/31 12:28:00;;;;;;;3.13;2.60;;;20.30;65.80;;;;;;5106661;28;20456;-77
2023/03/31 12:30:30;;;;;;;3.70;2.70;;;19.90;65.90;;;;;;5111844;27;20449;-79
2023/03/31 12:33:02;;;;;;;2.97;2.20;;;20.10;68.80;;;;;;5107924;27;20456;-78
2023/03/31 12:35:35;;;;;;;4.80;2.27;;;20.70;67.20;;;;;;5112531;28;20430;-80
2023/03/31 12:38:09;;;;;;;2.37;2.20;;;21.20;65.50;;;;;;5115433;27;21029;-78
2023/03/31 12:40:42;;;;;;;2.50;2.30;;;21.60;63.90;;;;;;5114487;28;20516;-80
2023/03/31 12:43:21;;;;;;;4.20;2.43;;;21.70;62.70;;;;;;5101270;27;20451;-81
2023/03/31 12:45:50;;;;;;;2.60;2.30;;;21.80;62.30;;;;;;5105913;28;20440;-80
2023/03/31 12:48:34;;;;;;;3.67;2.43;;;21.90;61.90;;;;;;5113590;27;20451;-79
2023/03/31 12:51:17;;;;;;;4.90;2.10;;;21.90;61.70;;;;;;5112804;27;20458;-80
2023/03/31 12:53:53;;;;;;;2.77;2.30;;;22.00;61.50;;;;;;5114343;27;20459;-81
2023/03/31 12:56:21;;;;;;;4.00;2.53;;;22.10;61.60;;;;;;5110190;27;20547;-84
2023/03/31 12:58:49;;;;;;;3.20;2.00;;;22.10;61.30;;;;;;5118226;27;20453;-83
2023/03/31 13:01:18;;;;;;;2.37;2.17;;;22.20;61.20;;;;;;5110988;28;20448;-83